Time;durP1;ratioP1;P1;durP2;ratioP2;P2;SDS_P1;SDS_P2;PMS_P1;PMS_P2;Temp;Humidity;BMP_temperature;BMP_pressure;BME280_temperature;BME280_humidity;BME280_pressure;Samples;Min_cycle;Max_cycle;Signal;HPM_P1;HPM_P2
2022/07/13 00:55:16;;;;;;;0.20;0.20;;;20.40;99.90;;;;;;6212838;23;20094;-89
2022/07/13 01:04:03;;;;;;;0.20;0.20;;;20.40;99.90;;;;;;6211583;22;20076;-88
2022/07/13 06:11:59;;;;;;;0.20;0.20;;;21.00;99.90;;;;;;6002340;23;20078;-83
2022/07/13 06:29:37;;;;;;;0.20;0.20;;;21.20;99.90;;;;;;5973664;24;20512;-84
2022/07/13 06:48:39;;;;;;;0.20;0.20;;;21.40;99.90;;;;;;6196521;23;20034;-86
2022/07/13 06:59:20;;;;;;;0.17;0.17;;;21.50;99.90;;;;;;6205634;23;20023;-84
2022/07/13 07:21:00;;;;;;;0.20;0.20;;;21.80;99.90;;;;;;5732104;24;20164;-81
2022/07/13 07:23:34;;;;;;;0.10;0.10;;;21.80;99.90;;;;;;5855280;24;20442;-83
2022/07/13 07:26:16;;;;;;;0.20;0.20;;;21.90;99.90;;;;;;5967918;24;20070;-83
2022/07/13 07:41:10;;;;;;;0.20;0.20;;;22.10;99.90;;;;;;5891157;24;20363;-82
2022/07/13 07:52:06;;;;;;;0.20;0.20;;;22.30;99.90;;;;;;5878848;24;20375;-83
2022/07/13 08:07:30;;;;;;;0.20;0.20;;;22.60;99.90;;;;;;5852497;24;20574;-82
2022/07/13 08:13:37;;;;;;;0.20;0.20;;;22.70;99.90;;;;;;5918017;24;20450;-81
2022/07/13 08:31:27;;;;;;;0.20;0.20;;;22.90;99.90;;;;;;5891292;24;20033;-83
2022/07/13 08:38:35;;;;;;;0.20;0.20;;;23.00;99.90;;;;;;5918648;24;20363;-78
2022/07/13 08:41:10;;;;;;;0.20;0.20;;;23.10;99.90;;;;;;6076321;23;20404;-77
2022/07/13 08:43:46;;;;;;;0.20;0.20;;;23.10;99.90;;;;;;6116082;23;20101;-78
2022/07/13 08:46:14;;;;;;;0.20;0.20;;;23.10;99.90;;;;;;6118525;23;20428;-78
2022/07/13 08:49:38;;;;;;;0.20;0.20;;;23.20;99.90;;;;;;6094705;23;20411;-78
2022/07/13 08:52:46;;;;;;;0.28;0.28;;;23.20;99.90;;;;;;5976586;23;20480;-79
2022/07/13 08:55:12;;;;;;;0.20;0.20;;;23.10;99.90;;;;;;5997276;23;20024;-79
2022/07/13 08:58:30;;;;;;;0.20;0.20;;;23.30;99.90;;;;;;6000307;23;20023;-79
2022/07/13 09:02:01;;;;;;;0.20;0.20;;;23.30;99.90;;;;;;5972881;24;20106;-80
2022/07/13 09:04:49;;;;;;;0.20;0.20;;;23.30;99.90;;;;;;5830449;24;20030;-79
2022/07/13 09:07:21;;;;;;;0.20;0.20;;;23.50;99.90;;;;;;5834311;24;20039;-77
2022/07/13 09:10:05;;;;;;;0.20;0.20;;;23.50;99.90;;;;;;5835978;24;20018;-78
2022/07/13 09:12:46;;;;;;;0.20;0.20;;;23.60;99.90;;;;;;5837786;24;20429;-79
2022/07/13 09:15:12;;;;;;;0.20;0.20;;;23.60;99.90;;;;;;5831540;24;20024;-77
2022/07/13 09:18:25;;;;;;;0.20;0.20;;;23.60;99.90;;;;;;5945763;24;20438;-76
2022/07/13 09:21:24;;;;;;;0.20;0.20;;;23.60;99.90;;;;;;5844735;24;20033;-75
2022/07/13 09:24:39;;;;;;;0.20;0.20;;;23.70;99.90;;;;;;5926833;24;20099;-75
2022/07/13 09:27:58;;;;;;;0.20;0.20;;;23.80;99.90;;;;;;5841047;24;20649;-76
2022/07/13 09:30:54;;;;;;;0.20;0.20;;;23.80;99.90;;;;;;5789128;24;20162;-76
2022/07/13 09:41:30;;;;;;;0.20;0.20;;;24.00;99.90;;;;;;6209223;23;20067;-75
2022/07/13 09:47:48;;;;;;;0.10;0.10;;;24.10;99.90;;;;;;6209749;23;20027;-77
2022/07/13 09:50:17;;;;;;;0.20;0.20;;;24.20;99.90;;;;;;6181186;23;20114;-78
2022/07/13 09:53:37;;;;;;;0.20;0.20;;;24.20;99.90;;;;;;6209987;23;20017;-76
2022/07/13 10:07:48;;;;;;;0.20;0.20;;;24.20;99.90;;;;;;6026753;23;20033;-77
2022/07/13 10:15:05;;;;;;;0.20;0.20;;;24.30;99.90;;;;;;5909196;24;20090;-77
2022/07/13 10:20:57;;;;;;;0.20;0.20;;;24.30;99.90;;;;;;5918658;24;20048;-78
2022/07/13 10:23:37;;;;;;;0.20;0.20;;;24.30;99.90;;;;;;5929123;23;20075;-72
2022/07/13 10:26:03;;;;;;;0.20;0.20;;;24.30;99.90;;;;;;6208411;23;20039;-73
2022/07/13 10:28:29;;;;;;;0.10;0.10;;;24.30;99.90;;;;;;6180558;23;20016;-72
2022/07/13 10:30:55;;;;;;;0.20;0.20;;;24.40;99.90;;;;;;6207182;23;20020;-73
2022/07/13 10:33:24;;;;;;;0.20;0.20;;;24.40;99.90;;;;;;6180527;23;20024;-72
2022/07/13 10:35:58;;;;;;;0.20;0.20;;;24.40;99.90;;;;;;6180437;23;20017;-74
2022/07/13 10:38:28;;;;;;;0.20;0.20;;;24.40;99.90;;;;;;6182202;23;20480;-73
2022/07/13 10:41:22;;;;;;;0.20;0.20;;;24.50;99.90;;;;;;6209572;23;20384;-73
2022/07/13 10:44:01;;;;;;;0.20;0.20;;;24.50;99.90;;;;;;6179116;23;20086;-73
2022/07/13 10:46:52;;;;;;;0.20;0.20;;;24.50;99.90;;;;;;6207590;23;20063;-74
2022/07/13 10:49:52;;;;;;;0.10;0.10;;;24.50;99.90;;;;;;6207355;23;20135;-73
2022/07/13 10:52:21;;;;;;;0.20;0.20;;;24.60;99.90;;;;;;6207958;23;20029;-73
2022/07/13 10:57:31;;;;;;;0.20;0.20;;;24.60;99.90;;;;;;6208558;23;20096;-73
2022/07/13 11:00:23;;;;;;;0.10;0.10;;;24.60;99.90;;;;;;6180346;23;20314;-73
2022/07/13 11:02:50;;;;;;;0.20;0.20;;;24.70;99.90;;;;;;6183055;23;20453;-73
2022/07/13 11:05:19;;;;;;;0.20;0.20;;;24.70;99.90;;;;;;6208810;23;20027;-74
2022/07/13 11:07:47;;;;;;;0.20;0.20;;;24.70;99.90;;;;;;6181780;23;20030;-73
2022/07/13 11:10:28;;;;;;;0.20;0.20;;;24.70;99.90;;;;;;6209070;23;20127;-72
2022/07/13 11:13:09;;;;;;;0.20;0.20;;;24.70;99.90;;;;;;6180698;23;20095;-73
2022/07/13 11:15:54;;;;;;;0.20;0.20;;;24.80;99.90;;;;;;6210030;23;20091;-73
2022/07/13 11:18:27;;;;;;;0.20;0.20;;;24.80;99.90;;;;;;6210196;23;20020;-73
2022/07/13 11:21:03;;;;;;;0.20;0.20;;;24.80;99.90;;;;;;6181947;23;20017;-73
2022/07/13 11:26:47;;;;;;;0.20;0.20;;;24.90;99.90;;;;;;6208765;23;20021;-73
2022/07/13 11:29:40;;;;;;;0.20;0.20;;;25.00;99.90;;;;;;6209101;23;20046;-73
2022/07/13 11:32:06;;;;;;;0.20;0.20;;;25.10;99.90;;;;;;6208222;23;20016;-72
2022/07/13 11:34:32;;;;;;;0.20;0.20;;;25.10;99.90;;;;;;6181220;23;20025;-72
2022/07/13 11:37:03;;;;;;;0.25;0.25;;;25.10;99.90;;;;;;6177641;23;20013;-74
2022/07/13 11:39:29;;;;;;;;;;;25.10;99.90;;;;;;6181908;23;20051;-73
2022/07/13 11:41:59;;;;;;;0.20;0.20;;;25.20;99.90;;;;;;6206166;23;19946;-73
2022/07/13 11:44:26;;;;;;;0.20;0.20;;;25.20;99.90;;;;;;6176890;23;20467;-72
2022/07/13 11:47:00;;;;;;;0.20;0.20;;;25.20;99.90;;;;;;6181457;23;20317;-73
2022/07/13 11:49:27;;;;;;;0.20;0.20;;;25.20;99.90;;;;;;6181923;23;20020;-73
2022/07/13 11:51:53;;;;;;;0.20;0.20;;;25.20;99.90;;;;;;6210027;23;20312;-73
2022/07/13 11:54:22;;;;;;;0.20;0.20;;;25.10;99.90;;;;;;6208441;23;20044;-73
2022/07/13 11:56:53;;;;;;;0.20;0.20;;;25.10;99.90;;;;;;6208108;23;20020;-73
2022/07/13 11:59:39;;;;;;;0.20;0.20;;;25.20;99.90;;;;;;6208305;23;20017;-73
2022/07/13 12:02:10;;;;;;;0.20;0.20;;;25.10;99.90;;;;;;6181505;23;20166;-73
2022/07/13 12:04:56;;;;;;;;;;;25.10;99.90;;;;;;6210783;23;20016;-73
2022/07/13 12:07:30;;;;;;;0.20;0.20;;;25.10;99.90;;;;;;6207627;23;19954;-74
2022/07/13 12:10:02;;;;;;;0.20;0.20;;;25.10;99.90;;;;;;6208591;23;20059;-74
2022/07/13 12:12:37;;;;;;;0.17;0.17;;;25.10;99.90;;;;;;6183125;23;20156;-74
2022/07/13 12:15:04;;;;;;;0.20;0.20;;;25.10;99.90;;;;;;6209112;23;20048;-74
2022/07/13 12:17:50;;;;;;;0.20;0.20;;;25.10;99.90;;;;;;6182037;23;20035;-74
2022/07/13 12:20:18;;;;;;;0.20;0.20;;;25.10;99.90;;;;;;6184679;23;20020;-74
2022/07/13 12:22:52;;;;;;;0.20;0.20;;;25.20;99.90;;;;;;6184457;23;20361;-74
2022/07/13 12:25:27;;;;;;;0.20;0.20;;;25.20;99.90;;;;;;6183684;23;20017;-74
2022/07/13 12:27:54;;;;;;;0.20;0.20;;;25.10;99.90;;;;;;6209664;23;20059;-73
2022/07/13 12:30:20;;;;;;;0.20;0.20;;;25.10;99.90;;;;;;6184134;23;20016;-73
2022/07/13 12:33:06;;;;;;;0.20;0.20;;;25.10;99.90;;;;;;6184635;23;20154;-74
2022/07/13 12:35:37;;;;;;;0.20;0.20;;;25.00;99.90;;;;;;6211361;23;20106;-74
2022/07/13 12:38:12;;;;;;;0.20;0.20;;;24.90;99.90;;;;;;6181596;23;20027;-74
2022/07/13 12:40:49;;;;;;;0.20;0.20;;;24.90;99.90;;;;;;6184562;23;20024;-74
2022/07/13 12:43:29;;;;;;;0.20;0.20;;;24.90;99.90;;;;;;6183149;23;20080;-74
2022/07/13 12:46:00;;;;;;;0.20;0.20;;;24.80;99.90;;;;;;6182655;23;20123;-75
2022/07/13 12:48:26;;;;;;;;;;;24.90;99.90;;;;;;6211676;23;20087;-74
2022/07/13 12:51:05;;;;;;;0.20;0.20;;;24.80;99.90;;;;;;6182719;23;19974;-74
2022/07/13 12:53:53;;;;;;;0.20;0.20;;;24.80;99.90;;;;;;6183873;23;20017;-75
2022/07/13 12:56:44;;;;;;;0.20;0.20;;;24.80;99.90;;;;;;6210781;23;20020;-74
2022/07/13 12:59:10;;;;;;;0.20;0.20;;;24.70;99.90;;;;;;6207601;23;20100;-73
2022/07/13 13:01:37;;;;;;;0.20;0.20;;;24.80;99.90;;;;;;6208964;23;20021;-74
2022/07/13 13:04:12;;;;;;;0.20;0.20;;;24.80;99.90;;;;;;6207041;23;20406;-74
2022/07/13 13:06:40;;;;;;;0.20;0.20;;;24.80;99.90;;;;;;6205097;23;20398;-73
2022/07/13 13:09:11;;;;;;;0.20;0.20;;;24.70;99.90;;;;;;6209419;23;20021;-74
2022/07/13 13:11:39;;;;;;;0.20;0.20;;;24.70;99.90;;;;;;6182782;23;20070;-73
2022/07/13 13:14:05;;;;;;;0.20;0.20;;;24.50;99.90;;;;;;6179872;23;20077;-73
2022/07/13 13:16:34;;;;;;;0.20;0.20;;;24.70;99.90;;;;;;6209421;23;20012;-73
2022/07/13 13:19:01;;;;;;;0.20;0.20;;;24.60;99.90;;;;;;6183652;23;20158;-74
2022/07/13 13:21:27;;;;;;;0.20;0.20;;;24.70;99.90;;;;;;6209597;23;20021;-74
2022/07/13 13:23:54;;;;;;;0.20;0.20;;;24.70;99.90;;;;;;6208478;23;20103;-74
2022/07/13 13:26:23;;;;;;;0.20;0.20;;;24.60;99.90;;;;;;6183200;23;20353;-74
2022/07/13 13:31:32;;;;;;;0.20;0.20;;;24.70;99.90;;;;;;6184321;23;20139;-74
2022/07/13 13:33:58;;;;;;;0.20;0.20;;;24.70;99.90;;;;;;6182289;23;20393;-74
2022/07/13 13:36:27;;;;;;;0.22;0.22;;;24.60;99.90;;;;;;6208398;23;20051;-74
2022/07/13 13:38:53;;;;;;;0.20;0.20;;;24.70;99.90;;;;;;6182883;23;20047;-74
2022/07/13 13:41:18;;;;;;;0.20;0.20;;;24.80;99.90;;;;;;6209959;23;20020;-74
2022/07/13 13:43:47;;;;;;;0.20;0.20;;;24.80;99.90;;;;;;6207632;23;20040;-74
2022/07/13 13:46:14;;;;;;;0.20;0.20;;;24.90;99.90;;;;;;6209022;23;20035;-76
2022/07/13 13:48:39;;;;;;;0.10;0.10;;;25.00;99.90;;;;;;6208233;23;20016;-76
2022/07/13 13:51:05;;;;;;;0.20;0.20;;;25.10;99.90;;;;;;6209963;23;20369;-76
2022/07/13 13:53:30;;;;;;;0.20;0.20;;;25.10;99.90;;;;;;6210431;23;20017;-75
2022/07/13 13:55:56;;;;;;;0.20;0.20;;;25.10;99.90;;;;;;6209637;23;20020;-75
2022/07/13 13:58:22;;;;;;;0.20;0.20;;;25.10;99.90;;;;;;6210152;23;20095;-76
2022/07/13 14:00:50;;;;;;;0.20;0.20;;;25.00;99.90;;;;;;6210762;23;20437;-76
2022/07/13 14:03:16;;;;;;;0.20;0.20;;;24.90;99.90;;;;;;6209653;23;20421;-75
2022/07/13 14:05:44;;;;;;;0.20;0.20;;;24.80;99.90;;;;;;6209837;23;20021;-76
2022/07/13 14:08:10;;;;;;;0.20;0.20;;;24.80;99.90;;;;;;6183686;23;20024;-75
2022/07/13 14:10:36;;;;;;;0.20;0.20;;;24.70;99.90;;;;;;6182751;23;20024;-76
2022/07/13 14:13:02;;;;;;;0.20;0.20;;;24.70;99.90;;;;;;6182813;23;20024;-75
2022/07/13 14:15:28;;;;;;;0.20;0.20;;;24.70;99.90;;;;;;6209843;23;20287;-76
2022/07/13 14:17:53;;;;;;;0.15;0.15;;;24.70;99.90;;;;;;6182757;23;20067;-76
2022/07/13 14:20:21;;;;;;;0.20;0.20;;;24.70;99.90;;;;;;6183151;23;20016;-75
2022/07/13 14:22:47;;;;;;;0.20;0.20;;;24.70;99.90;;;;;;6208723;23;20025;-76
2022/07/13 14:25:13;;;;;;;0.20;0.20;;;24.70;99.90;;;;;;6210513;23;20021;-77
2022/07/13 14:27:39;;;;;;;0.20;0.20;;;24.60;99.90;;;;;;6211211;23;20024;-75
2022/07/13 14:30:08;;;;;;;0.20;0.20;;;24.70;99.90;;;;;;6181192;23;20027;-76
2022/07/13 14:32:34;;;;;;;0.20;0.20;;;24.80;99.90;;;;;;6210824;23;20282;-75
2022/07/13 14:35:00;;;;;;;0.20;0.20;;;24.90;99.90;;;;;;6184044;23;20024;-76
2022/07/13 14:37:26;;;;;;;0.20;0.20;;;24.80;99.90;;;;;;6182101;23;20017;-77
2022/07/13 14:39:52;;;;;;;0.20;0.20;;;24.90;99.90;;;;;;6208645;23;20055;-76
2022/07/13 14:42:18;;;;;;;0.20;0.20;;;25.00;99.90;;;;;;6210082;23;20016;-78
2022/07/13 14:44:43;;;;;;;0.20;0.20;;;25.20;99.90;;;;;;6205523;23;20009;-78
2022/07/13 14:47:09;;;;;;;0.20;0.20;;;25.30;99.90;;;;;;6178563;23;20024;-76
2022/07/13 14:49:35;;;;;;;0.20;0.20;;;25.40;99.90;;;;;;6206640;23;20020;-76
2022/07/13 14:52:00;;;;;;;0.20;0.20;;;25.50;99.90;;;;;;6181521;23;20021;-78
2022/07/13 14:54:26;;;;;;;0.20;0.20;;;25.60;99.90;;;;;;6182984;23;20013;-77
2022/07/13 14:56:56;;;;;;;0.20;0.20;;;25.70;99.90;;;;;;6183430;23;20342;-77
2022/07/13 14:59:25;;;;;;;0.20;0.20;;;25.90;99.90;;;;;;6208512;23;20024;-77
2022/07/13 15:01:51;;;;;;;0.20;0.20;;;26.00;99.90;;;;;;6209577;23;20324;-76
2022/07/13 15:04:18;;;;;;;0.20;0.20;;;26.00;99.90;;;;;;6209791;23;20107;-76
2022/07/13 15:06:45;;;;;;;0.20;0.20;;;26.00;99.90;;;;;;6209738;23;20059;-78
2022/07/13 15:09:14;;;;;;;0.20;0.20;;;26.00;99.90;;;;;;6182582;23;20092;-77
2022/07/13 15:11:40;;;;;;;0.20;0.20;;;26.10;99.90;;;;;;6209207;23;20016;-76
2022/07/13 15:14:06;;;;;;;0.20;0.20;;;26.30;99.90;;;;;;6208138;23;20544;-77
2022/07/13 15:16:32;;;;;;;0.20;0.20;;;26.60;99.90;;;;;;6210583;23;20063;-78
2022/07/13 15:18:57;;;;;;;0.20;0.20;;;27.20;99.90;;;;;;6206483;23;20016;-77
2022/07/13 15:21:23;;;;;;;0.20;0.20;;;27.90;99.90;;;;;;6209141;23;20080;-77
2022/07/13 15:23:48;;;;;;;0.20;0.20;;;28.40;99.90;;;;;;6209734;23;20017;-77
2022/07/13 15:26:14;;;;;;;0.20;0.20;;;28.90;99.90;;;;;;6182115;23;20453;-76
2022/07/13 15:28:44;;;;;;;0.20;0.20;;;29.50;99.70;;;;;;6181795;23;20073;-76
2022/07/13 15:31:09;;;;;;;0.20;0.20;;;30.30;99.10;;;;;;6209269;23;20044;-77
2022/07/13 15:33:35;;;;;;;0.28;0.28;;;31.20;99.40;;;;;;6182431;23;20035;-77
2022/07/13 15:36:02;;;;;;;0.20;0.20;;;31.70;99.40;;;;;;6208756;23;20032;-78
2022/07/13 15:38:28;;;;;;;0.30;0.30;;;;;;;;;;6181738;23;20467;-78
2022/07/13 15:43:42;;;;;;;0.20;0.20;;;;;;;;;;6182209;23;20024;-77
2022/07/13 15:46:08;;;;;;;0.30;0.30;;;;;;;;;;6182971;23;20032;-78
2022/07/13 15:48:37;;;;;;;0.25;0.25;;;;;;;;;;6208754;23;20025;-77
2022/07/13 15:51:03;;;;;;;0.30;0.30;;;;;;;;;;6183931;23;20103;-79
2022/07/13 15:53:29;;;;;;;0.30;0.30;;;;;;;;;;6212843;23;20341;-78
2022/07/13 15:55:55;;;;;;;0.30;0.30;;;;;;;;;;6184196;23;20025;-77
2022/07/13 15:58:21;;;;;;;0.30;0.30;;;;;;;;;;6212032;23;20318;-79
2022/07/13 16:00:47;;;;;;;0.30;0.30;;;;;;;;;;6213740;23;20437;-77
2022/07/13 16:03:14;;;;;;;0.30;0.30;;;;;;;;;;6212063;23;20018;-77
2022/07/13 16:05:40;;;;;;;0.30;0.30;;;41.40;68.20;;;;;;6187464;23;20016;-78
2022/07/13 16:08:06;;;;;;;0.30;0.30;;;41.00;66.90;;;;;;6184659;23;20100;-79
2022/07/13 16:10:33;;;;;;;0.30;0.30;;;40.50;67.20;;;;;;6185301;23;20071;-77
2022/07/13 16:13:00;;;;;;;0.30;0.30;;;40.40;64.60;;;;;;6212091;23;20012;-78
2022/07/13 16:15:26;;;;;;;0.30;0.30;;;39.50;60.50;;;;;;6185120;23;20017;-77
2022/07/13 16:17:52;;;;;;;0.30;0.30;;;37.90;60.90;;;;;;6213534;23;20021;-76
2022/07/13 16:20:19;;;;;;;0.20;0.20;;;36.40;61.30;;;;;;6213788;23;20382;-77
2022/07/13 16:22:45;;;;;;;0.20;0.20;;;34.90;61.40;;;;;;6211974;23;20021;-78
2022/07/13 16:25:11;;;;;;;0.20;0.20;;;33.50;61.80;;;;;;6185205;23;20442;-77
2022/07/13 16:27:36;;;;;;;0.20;0.20;;;32.30;63.80;;;;;;6185782;23;20051;-78
2022/07/13 16:30:03;;;;;;;0.20;0.20;;;31.20;65.60;;;;;;6184634;23;20098;-77
2022/07/13 16:32:29;;;;;;;0.20;0.20;;;30.30;66.80;;;;;;6212627;23;20024;-76
2022/07/13 16:34:55;;;;;;;0.20;0.20;;;29.60;66.30;;;;;;6185576;23;20020;-77
2022/07/13 16:37:20;;;;;;;0.10;0.10;;;28.70;67.70;;;;;;6212652;23;20013;-77
2022/07/13 16:39:46;;;;;;;0.20;0.20;;;27.90;69.20;;;;;;6211391;23;20048;-78
2022/07/13 16:42:11;;;;;;;0.20;0.20;;;27.30;70.30;;;;;;6213214;23;20043;-76
2022/07/13 16:44:37;;;;;;;0.20;0.20;;;26.70;70.70;;;;;;6207825;23;20027;-76
2022/07/13 16:47:04;;;;;;;0.20;0.20;;;26.10;71.50;;;;;;6186164;23;20029;-77
2022/07/13 16:49:30;;;;;;;0.20;0.20;;;25.50;72.70;;;;;;6186097;23;20104;-76
2022/07/13 16:51:57;;;;;;;0.20;0.20;;;25.10;73.50;;;;;;6212187;23;20056;-77
2022/07/13 16:54:24;;;;;;;0.20;0.20;;;24.60;75.00;;;;;;6210621;23;20013;-78
2022/07/13 16:56:49;;;;;;;0.20;0.20;;;24.20;76.20;;;;;;6185873;23;20344;-78
2022/07/13 16:59:15;;;;;;;0.20;0.20;;;24.10;77.30;;;;;;6184584;23;20019;-77
2022/07/13 17:01:41;;;;;;;0.20;0.20;;;23.90;78.70;;;;;;6212967;23;20146;-77
2022/07/13 17:04:10;;;;;;;0.20;0.20;;;23.60;79.00;;;;;;6211149;23;20013;-78
2022/07/13 17:06:36;;;;;;;0.20;0.20;;;23.30;79.80;;;;;;6211315;23;20143;-76
2022/07/13 17:09:01;;;;;;;0.20;0.20;;;23.10;81.00;;;;;;6209770;23;20020;-77
2022/07/13 17:11:28;;;;;;;0.20;0.20;;;22.80;81.90;;;;;;6183579;23;20016;-78
2022/07/13 17:13:54;;;;;;;0.20;0.20;;;22.60;83.20;;;;;;6183505;23;20465;-76
2022/07/13 17:16:20;;;;;;;0.20;0.20;;;22.40;84.70;;;;;;6211648;23;20020;-77
2022/07/13 17:18:58;;;;;;;0.20;0.20;;;22.20;85.70;;;;;;6210136;23;20468;-76
2022/07/13 17:21:25;;;;;;;0.20;0.20;;;22.10;87.40;;;;;;6211590;23;20112;-76
2022/07/13 17:23:52;;;;;;;0.10;0.10;;;21.90;89.40;;;;;;6209636;23;20021;-77
2022/07/13 17:26:18;;;;;;;0.13;0.13;;;21.90;90.50;;;;;;6210745;23;20015;-78
2022/07/13 17:28:44;;;;;;;0.20;0.20;;;22.00;91.50;;;;;;6183963;23;20021;-77
2022/07/13 17:31:16;;;;;;;0.20;0.20;;;22.20;92.60;;;;;;6184217;23;20009;-79
2022/07/13 17:33:42;;;;;;;0.10;0.10;;;22.40;92.70;;;;;;6209783;23;20098;-78
2022/07/13 17:36:09;;;;;;;0.20;0.20;;;22.40;92.40;;;;;;6211624;23;20240;-77
2022/07/13 17:38:34;;;;;;;0.20;0.20;;;22.30;92.60;;;;;;6209973;23;20406;-78
2022/07/13 17:41:01;;;;;;;0.20;0.20;;;22.30;92.70;;;;;;6210850;23;20036;-77
2022/07/13 17:43:27;;;;;;;0.20;0.20;;;22.10;93.10;;;;;;6210236;23;20017;-78
2022/07/13 17:45:53;;;;;;;0.10;0.10;;;22.00;93.00;;;;;;6210911;23;20028;-78
2022/07/13 17:48:21;;;;;;;0.20;0.20;;;21.90;93.10;;;;;;6209707;23;20367;-78
2022/07/13 17:50:47;;;;;;;0.20;0.20;;;21.60;93.50;;;;;;6211439;23;20027;-77
2022/07/13 17:53:13;;;;;;;0.20;0.20;;;21.50;93.90;;;;;;6209960;23;20080;-76
2022/07/13 17:55:39;;;;;;;0.20;0.20;;;21.20;94.10;;;;;;6183722;23;20017;-76
2022/07/13 17:58:05;;;;;;;0.15;0.15;;;21.10;94.50;;;;;;6182396;23;20406;-77
2022/07/13 18:00:34;;;;;;;0.20;0.20;;;20.90;94.80;;;;;;6182697;23;20028;-77
2022/07/13 18:03:00;;;;;;;0.20;0.20;;;20.80;95.30;;;;;;6183195;23;20104;-78
2022/07/13 18:05:26;;;;;;;0.20;0.20;;;20.60;95.80;;;;;;6211751;23;20020;-78
2022/07/13 18:07:52;;;;;;;0.20;0.20;;;20.50;96.20;;;;;;6181728;23;20120;-77
2022/07/13 18:10:18;;;;;;;0.10;0.10;;;20.40;96.50;;;;;;6211600;23;20040;-77
2022/07/13 18:12:43;;;;;;;0.20;0.20;;;20.40;96.90;;;;;;6182271;23;20020;-77
2022/07/13 18:15:09;;;;;;;0.20;0.20;;;20.30;97.30;;;;;;6209593;23;20337;-80
2022/07/13 18:17:35;;;;;;;0.20;0.20;;;20.20;97.80;;;;;;6210846;23;20016;-78
2022/07/13 18:20:01;;;;;;;0.20;0.20;;;20.00;97.60;;;;;;6208023;23;20029;-81
2022/07/13 18:22:27;;;;;;;0.20;0.20;;;20.00;97.90;;;;;;6173730;23;20071;-79
2022/07/13 18:24:52;;;;;;;0.20;0.20;;;19.90;98.20;;;;;;6172570;23;20303;-80
2022/07/13 18:27:22;;;;;;;0.20;0.20;;;19.90;98.50;;;;;;6198268;23;20397;-82
2022/07/13 18:29:47;;;;;;;0.20;0.20;;;19.70;98.70;;;;;;6206387;23;20024;-80
2022/07/13 18:32:13;;;;;;;0.10;0.10;;;19.60;99.00;;;;;;6208523;23;20020;-80
2022/07/13 18:34:40;;;;;;;0.10;0.10;;;19.70;99.20;;;;;;6180576;23;20017;-81
2022/07/13 18:37:06;;;;;;;0.20;0.20;;;19.60;99.30;;;;;;6181571;23;20098;-81
2022/07/13 18:39:34;;;;;;;0.20;0.20;;;19.50;99.40;;;;;;6205312;23;20064;-80
2022/07/13 18:42:00;;;;;;;0.20;0.20;;;19.50;99.80;;;;;;6181266;23;20022;-81
2022/07/13 18:44:26;;;;;;;0.10;0.10;;;19.60;99.90;;;;;;6178719;23;20100;-81
2022/07/13 18:46:51;;;;;;;0.10;0.10;;;19.40;99.90;;;;;;6208905;23;20019;-80
2022/07/13 18:49:17;;;;;;;0.20;0.20;;;19.30;99.90;;;;;;6181271;23;20012;-81
2022/07/13 18:51:43;;;;;;;0.20;0.20;;;19.30;99.90;;;;;;6181269;23;20017;-81
2022/07/13 18:54:09;;;;;;;0.20;0.20;;;19.20;99.90;;;;;;6180773;23;20082;-81
2022/07/13 18:56:36;;;;;;;0.20;0.20;;;19.10;99.90;;;;;;6181232;23;20368;-81
2022/07/13 18:59:03;;;;;;;0.13;0.13;;;19.10;99.90;;;;;;6206506;23;20020;-81
2022/07/13 19:01:47;;;;;;;0.20;0.20;;;19.00;99.90;;;;;;6182560;23;20013;-81
2022/07/13 19:04:13;;;;;;;0.10;0.10;;;19.00;99.90;;;;;;6195133;23;20467;-80
2022/07/13 19:06:41;;;;;;;0.10;0.10;;;18.80;99.90;;;;;;6169811;23;20048;-80
2022/07/13 19:09:07;;;;;;;0.10;0.10;;;18.80;99.90;;;;;;6174192;23;20016;-81
2022/07/13 19:11:32;;;;;;;0.10;0.10;;;18.60;99.90;;;;;;6201183;23;20468;-80
2022/07/13 19:13:59;;;;;;;0.10;0.10;;;18.60;99.90;;;;;;6169435;23;20092;-80
2022/07/13 19:16:26;;;;;;;0.20;0.20;;;18.70;99.90;;;;;;6172699;23;20325;-81
2022/07/13 19:18:51;;;;;;;0.20;0.20;;;18.50;99.90;;;;;;6169268;23;20028;-80
2022/07/13 19:21:17;;;;;;;0.10;0.10;;;18.50;99.90;;;;;;6168685;23;20027;-81
2022/07/13 19:23:43;;;;;;;0.10;0.10;;;18.40;99.90;;;;;;6195306;23;20024;-81
2022/07/13 19:28:56;;;;;;;0.10;0.10;;;18.30;99.90;;;;;;6207785;23;20121;-81
2022/07/13 19:31:22;;;;;;;0.20;0.20;;;18.30;99.90;;;;;;6180446;23;20021;-81
2022/07/13 19:33:47;;;;;;;0.10;0.10;;;18.30;99.90;;;;;;6206151;23;20012;-81
2022/07/13 19:36:13;;;;;;;0.10;0.10;;;18.20;99.90;;;;;;6177676;23;20021;-81
2022/07/13 19:38:38;;;;;;;0.20;0.20;;;18.20;99.90;;;;;;6182377;23;20012;-80
2022/07/13 19:41:04;;;;;;;0.10;0.10;;;18.10;99.90;;;;;;6206850;23;20063;-82
2022/07/13 19:43:30;;;;;;;0.20;0.20;;;18.10;99.90;;;;;;6203135;23;20148;-82
2022/07/13 19:45:55;;;;;;;0.20;0.20;;;18.00;99.90;;;;;;6179726;23;20016;-80
2022/07/13 19:48:22;;;;;;;0.10;0.10;;;17.90;99.90;;;;;;6180425;23;20422;-81
2022/07/13 19:50:48;;;;;;;0.20;0.20;;;17.80;99.90;;;;;;6182085;23;20040;-80
2022/07/13 19:53:16;;;;;;;0.20;0.20;;;17.80;99.90;;;;;;6205740;23;20056;-81
2022/07/13 19:55:42;;;;;;;0.10;0.10;;;17.80;99.90;;;;;;6207436;23;20263;-80
2022/07/13 19:58:07;;;;;;;0.20;0.20;;;17.70;99.90;;;;;;6204737;23;20035;-80
2022/07/13 20:00:35;;;;;;;0.17;0.17;;;17.70;99.90;;;;;;6178416;23;20014;-81
2022/07/13 20:03:01;;;;;;;0.10;0.10;;;17.60;99.90;;;;;;6180488;23;20524;-81
2022/07/13 20:05:27;;;;;;;0.10;0.10;;;17.60;99.90;;;;;;6208064;23;20015;-80
2022/07/13 20:07:53;;;;;;;0.10;0.10;;;17.60;99.90;;;;;;6206752;23;20052;-81
2022/07/13 20:10:19;;;;;;;0.20;0.20;;;17.50;99.90;;;;;;6203766;23;20043;-80
2022/07/13 20:12:45;;;;;;;0.10;0.10;;;17.50;99.90;;;;;;6176023;23;20016;-80
2022/07/13 20:15:12;;;;;;;0.10;0.10;;;17.40;99.90;;;;;;6204117;23;20013;-80
2022/07/13 20:17:40;;;;;;;0.10;0.10;;;17.40;99.90;;;;;;6205494;23;20207;-81
2022/07/13 20:20:07;;;;;;;0.20;0.20;;;17.30;99.90;;;;;;6207149;23;20379;-81
2022/07/13 20:22:36;;;;;;;0.10;0.10;;;17.30;99.90;;;;;;6205214;23;20025;-80
2022/07/13 20:25:01;;;;;;;0.20;0.20;;;17.30;99.90;;;;;;6180804;23;20512;-80
2022/07/13 20:27:27;;;;;;;0.10;0.10;;;17.20;99.90;;;;;;6209333;23;20139;-80
2022/07/13 20:29:53;;;;;;;0.10;0.10;;;17.20;99.90;;;;;;6179946;23;20361;-81
2022/07/13 20:32:19;;;;;;;0.10;0.10;;;17.10;99.90;;;;;;6178110;23;20421;-81
2022/07/13 20:34:47;;;;;;;0.20;0.20;;;17.10;99.90;;;;;;6179135;23;20023;-81
2022/07/13 20:37:13;;;;;;;0.17;0.17;;;17.00;99.90;;;;;;6206008;23;20023;-80
2022/07/13 20:39:40;;;;;;;0.15;0.15;;;17.00;99.90;;;;;;6210268;23;20028;-81
2022/07/13 20:42:08;;;;;;;0.10;0.10;;;17.00;99.90;;;;;;6183558;23;20031;-81
2022/07/13 20:44:34;;;;;;;0.20;0.20;;;16.90;99.90;;;;;;6181253;23;20020;-80
2022/07/13 20:46:59;;;;;;;0.10;0.10;;;16.90;99.90;;;;;;6182807;23;20099;-81
2022/07/13 20:49:26;;;;;;;0.10;0.10;;;16.90;99.90;;;;;;6208050;23;20071;-81
2022/07/13 20:51:51;;;;;;;0.10;0.10;;;16.80;99.90;;;;;;6180950;23;20031;-81
2022/07/13 20:54:17;;;;;;;0.10;0.10;;;16.70;99.90;;;;;;6181981;23;20021;-81
2022/07/13 20:56:43;;;;;;;0.10;0.10;;;16.80;99.90;;;;;;6180551;23;20032;-82
2022/07/13 20:59:12;;;;;;;0.10;0.10;;;16.70;99.90;;;;;;6207359;23;20502;-81
2022/07/13 21:01:39;;;;;;;0.10;0.10;;;16.70;99.90;;;;;;6184101;23;20016;-82
2022/07/13 21:04:05;;;;;;;0.13;0.13;;;16.60;99.90;;;;;;6209979;23;20016;-80
2022/07/13 21:06:31;;;;;;;0.20;0.20;;;16.60;99.90;;;;;;6210700;23;20016;-80
2022/07/13 21:08:56;;;;;;;0.20;0.20;;;16.50;99.90;;;;;;6209918;23;20021;-81
2022/07/13 21:11:23;;;;;;;0.10;0.10;;;16.50;99.90;;;;;;6175546;23;20055;-80
2022/07/13 21:13:50;;;;;;;0.20;0.20;;;16.50;99.90;;;;;;6196367;23;20084;-80
2022/07/13 21:16:15;;;;;;;0.10;0.10;;;16.50;99.90;;;;;;6196142;23;20048;-80
2022/07/13 21:18:41;;;;;;;0.10;0.10;;;16.40;99.90;;;;;;6169796;23;20476;-79
2022/07/13 21:21:07;;;;;;;0.10;0.10;;;16.40;99.90;;;;;;6182733;23;20016;-82
2022/07/13 21:23:38;;;;;;;0.10;0.10;;;16.50;99.90;;;;;;6181333;23;20541;-80
2022/07/13 21:26:04;;;;;;;0.20;0.20;;;16.40;99.90;;;;;;6210475;23;20044;-80
2022/07/13 21:28:34;;;;;;;0.20;0.20;;;16.40;99.90;;;;;;6179916;23;20024;-81
2022/07/13 21:31:12;;;;;;;0.20;0.20;;;16.40;99.90;;;;;;6181993;23;20673;-80
2022/07/13 21:33:39;;;;;;;0.20;0.20;;;16.30;99.90;;;;;;6208628;23;20021;-80
2022/07/13 21:36:05;;;;;;;0.10;0.10;;;16.40;99.90;;;;;;6182253;23;20016;-80
2022/07/13 21:38:31;;;;;;;0.10;0.10;;;16.30;99.90;;;;;;6207383;23;20024;-81
2022/07/13 21:40:57;;;;;;;0.20;0.20;;;16.30;99.90;;;;;;6179229;23;20042;-80
2022/07/13 21:43:22;;;;;;;0.10;0.10;;;16.30;99.90;;;;;;6208814;23;20096;-80
2022/07/13 21:45:49;;;;;;;0.20;0.20;;;16.30;99.90;;;;;;6209611;23;20514;-81
2022/07/13 21:48:17;;;;;;;0.10;0.10;;;16.30;99.90;;;;;;6181303;23;20353;-81
2022/07/13 21:50:43;;;;;;;0.10;0.10;;;16.30;99.90;;;;;;6182843;23;20020;-79
2022/07/13 21:53:10;;;;;;;0.20;0.20;;;16.30;99.90;;;;;;6180285;23;20349;-80